sensor_id;sensor_type;location;lat;lon;timestamp;temperature;humidity
72865;DHT22;61000;48.120;11.548;2023-04-06T00:00:37;1.40;96.70
72865;DHT22;61000;48.120;11.548;2023-04-06T00:03:04;1.30;96.70
72865;DHT22;61000;48.120;11.548;2023-04-06T00:05:32;1.30;96.60
72865;DHT22;61000;48.120;11.548;2023-04-06T00:07:59;1.30;97.00
72865;DHT22;61000;48.120;11.548;2023-04-06T00:10:27;1.30;97.00
72865;DHT22;61000;48.120;11.548;2023-04-06T00:12:55;1.30;97.00
72865;DHT22;61000;48.120;11.548;2023-04-06T00:15:22;1.30;97.40
72865;DHT22;61000;48.120;11.548;2023-04-06T00:17:50;1.30;97.60
72865;DHT22;61000;48.120;11.548;2023-04-06T00:20:17;1.30;97.90
72865;DHT22;61000;48.120;11.548;2023-04-06T00:22:46;1.30;98.20
72865;DHT22;61000;48.120;11.548;2023-04-06T00:25:13;1.30;98.20
72865;DHT22;61000;48.120;11.548;2023-04-06T00:27:41;1.30;98.30
72865;DHT22;61000;48.120;11.548;2023-04-06T00:30:09;1.30;98.40
72865;DHT22;61000;48.120;11.548;2023-04-06T00:32:36;1.30;98.60
72865;DHT22;61000;48.120;11.548;2023-04-06T00:35:03;1.30;98.80
72865;DHT22;61000;48.120;11.548;2023-04-06T00:37:30;1.20;99.00
72865;DHT22;61000;48.120;11.548;2023-04-06T00:40:00;1.30;99.20
72865;DHT22;61000;48.120;11.548;2023-04-06T00:42:28;1.10;99.30
72865;DHT22;61000;48.120;11.548;2023-04-06T00:44:57;1.10;99.30
72865;DHT22;61000;48.120;11.548;2023-04-06T00:47:25;1.10;99.30
72865;DHT22;61000;48.120;11.548;2023-04-06T00:49:53;1.10;99.20
72865;DHT22;61000;48.120;11.548;2023-04-06T00:52:20;1.10;99.10
72865;DHT22;61000;48.120;11.548;2023-04-06T00:54:48;1.10;99.10
72865;DHT22;61000;48.120;11.548;2023-04-06T00:57:18;1.10;99.00
72865;DHT22;61000;48.120;11.548;2023-04-06T00:59:50;1.00;99.20
72865;DHT22;61000;48.120;11.548;2023-04-06T01:02:18;1.00;99.50
72865;DHT22;61000;48.120;11.548;2023-04-06T01:04:48;1.00;99.60
72865;DHT22;61000;48.120;11.548;2023-04-06T01:07:24;1.00;99.70
72865;DHT22;61000;48.120;11.548;2023-04-06T01:10:06;1.00;99.60
72865;DHT22;61000;48.120;11.548;2023-04-06T01:12:36;1.00;99.60
72865;DHT22;61000;48.120;11.548;2023-04-06T01:15:10;0.90;99.70
72865;DHT22;61000;48.120;11.548;2023-04-06T01:17:41;0.80;99.90
72865;DHT22;61000;48.120;11.548;2023-04-06T01:20:13;0.80;99.80
72865;DHT22;61000;48.120;11.548;2023-04-06T01:22:41;0.80;99.90
72865;DHT22;61000;48.120;11.548;2023-04-06T01:25:10;0.80;99.90
72865;DHT22;61000;48.120;11.548;2023-04-06T01:27:44;0.80;99.90
72865;DHT22;61000;48.120;11.548;2023-04-06T01:30:12;0.70;99.90
72865;DHT22;61000;48.120;11.548;2023-04-06T01:32:56;0.70;99.90
72865;DHT22;61000;48.120;11.548;2023-04-06T01:35:35;0.70;99.90
72865;DHT22;61000;48.120;11.548;2023-04-06T01:38:18;0.70;99.90
72865;DHT22;61000;48.120;11.548;2023-04-06T01:40:47;0.60;99.90
72865;DHT22;61000;48.120;11.548;2023-04-06T01:43:16;0.50;99.90
72865;DHT22;61000;48.120;11.548;2023-04-06T01:46:05;0.60;99.90
72865;DHT22;61000;48.120;11.548;2023-04-06T01:48:35;0.60;99.90
72865;DHT22;61000;48.120;11.548;2023-04-06T01:51:12;0.60;99.90
72865;DHT22;61000;48.120;11.548;2023-04-06T01:53:48;0.50;99.90
72865;DHT22;61000;48.120;11.548;2023-04-06T01:56:17;0.50;99.90
72865;DHT22;61000;48.120;11.548;2023-04-06T01:58:53;0.50;99.90
72865;DHT22;61000;48.120;11.548;2023-04-06T02:01:21;0.50;99.90
72865;DHT22;61000;48.120;11.548;2023-04-06T02:03:53;0.50;99.90
72865;DHT22;61000;48.120;11.548;2023-04-06T02:06:21;0.50;99.90
72865;DHT22;61000;48.120;11.548;2023-04-06T02:08:50;0.60;99.90
72865;DHT22;61000;48.120;11.548;2023-04-06T02:11:18;0.50;99.90
72865;DHT22;61000;48.120;11.548;2023-04-06T02:13:49;0.40;99.90
72865;DHT22;61000;48.120;11.548;2023-04-06T02:16:17;0.40;99.90
72865;DHT22;61000;48.120;11.548;2023-04-06T02:18:45;0.40;99.90
72865;DHT22;61000;48.120;11.548;2023-04-06T02:21:12;0.40;99.90
72865;DHT22;61000;48.120;11.548;2023-04-06T02:23:39;0.40;99.90
72865;DHT22;61000;48.120;11.548;2023-04-06T02:26:08;0.40;99.90
72865;DHT22;61000;48.120;11.548;2023-04-06T02:28:35;0.40;99.90
72865;DHT22;61000;48.120;11.548;2023-04-06T02:31:02;0.30;99.90
72865;DHT22;61000;48.120;11.548;2023-04-06T02:33:29;0.30;99.90
72865;DHT22;61000;48.120;11.548;2023-04-06T02:35:56;0.30;99.90
72865;DHT22;61000;48.120;11.548;2023-04-06T02:38:23;0.30;99.90
72865;DHT22;61000;48.120;11.548;2023-04-06T02:40:51;0.30;99.90
72865;DHT22;61000;48.120;11.548;2023-04-06T02:43:23;0.30;99.90
72865;DHT22;61000;48.120;11.548;2023-04-06T02:45:55;0.30;99.90
72865;DHT22;61000;48.120;11.548;2023-04-06T02:48:23;0.30;99.90
72865;DHT22;61000;48.120;11.548;2023-04-06T02:50:52;0.30;99.90
72865;DHT22;61000;48.120;11.548;2023-04-06T02:53:19;0.30;99.90
72865;DHT22;61000;48.120;11.548;2023-04-06T02:55:46;0.30;99.90
72865;DHT22;61000;48.120;11.548;2023-04-06T02:58:13;0.30;99.90
72865;DHT22;61000;48.120;11.548;2023-04-06T03:00:47;0.30;99.90
72865;DHT22;61000;48.120;11.548;2023-04-06T03:03:14;0.20;99.90
72865;DHT22;61000;48.120;11.548;2023-04-06T03:05:42;0.30;99.90
72865;DHT22;61000;48.120;11.548;2023-04-06T03:08:10;0.30;99.90
72865;DHT22;61000;48.120;11.548;2023-04-06T03:10:41;0.30;99.90
72865;DHT22;61000;48.120;11.548;2023-04-06T03:13:08;0.30;99.90
72865;DHT22;61000;48.120;11.548;2023-04-06T03:16:06;0.30;99.90
72865;DHT22;61000;48.120;11.548;2023-04-06T03:18:34;0.40;99.90
72865;DHT22;61000;48.120;11.548;2023-04-06T03:21:01;0.30;99.90
72865;DHT22;61000;48.120;11.548;2023-04-06T03:23:40;0.30;99.90
72865;DHT22;61000;48.120;11.548;2023-04-06T03:26:07;0.30;99.90
72865;DHT22;61000;48.120;11.548;2023-04-06T03:28:34;0.30;99.90
72865;DHT22;61000;48.120;11.548;2023-04-06T03:31:05;0.30;99.90
72865;DHT22;61000;48.120;11.548;2023-04-06T03:33:51;0.30;99.90
72865;DHT22;61000;48.120;11.548;2023-04-06T03:36:25;0.30;99.90
72865;DHT22;61000;48.120;11.548;2023-04-06T03:38:54;0.30;99.90
72865;DHT22;61000;48.120;11.548;2023-04-06T03:41:21;0.30;99.90
72865;DHT22;61000;48.120;11.548;2023-04-06T03:44:18;0.30;99.90
72865;DHT22;61000;48.120;11.548;2023-04-06T03:46:46;0.30;99.90
72865;DHT22;61000;48.120;11.548;2023-04-06T03:49:14;0.20;99.90
72865;DHT22;61000;48.120;11.548;2023-04-06T03:51:45;0.20;99.90
72865;DHT22;61000;48.120;11.548;2023-04-06T03:54:12;0.20;99.90
72865;DHT22;61000;48.120;11.548;2023-04-06T03:56:39;0.10;99.90
72865;DHT22;61000;48.120;11.548;2023-04-06T03:59:06;0.10;99.90
72865;DHT22;61000;48.120;11.548;2023-04-06T04:01:33;0.00;99.90
72865;DHT22;61000;48.120;11.548;2023-04-06T04:04:01;0.10;99.90
72865;DHT22;61000;48.120;11.548;2023-04-06T04:06:30;0.00;99.90
72865;DHT22;61000;48.120;11.548;2023-04-06T04:08:57;0.10;99.90
72865;DHT22;61000;48.120;11.548;2023-04-06T04:11:24;0.00;99.90
72865;DHT22;61000;48.120;11.548;2023-04-06T04:13:57;0.00;99.90
72865;DHT22;61000;48.120;11.548;2023-04-06T04:16:24;0.00;99.90
72865;DHT22;61000;48.120;11.548;2023-04-06T04:18:51;0.00;99.90
72865;DHT22;61000;48.120;11.548;2023-04-06T04:21:19;0.00;99.90
72865;DHT22;61000;48.120;11.548;2023-04-06T04:23:46;0.00;99.90
72865;DHT22;61000;48.120;11.548;2023-04-06T04:26:13;0.10;99.90
72865;DHT22;61000;48.120;11.548;2023-04-06T04:28:44;0.10;99.90
72865;DHT22;61000;48.120;11.548;2023-04-06T04:31:11;0.10;99.90
72865;DHT22;61000;48.120;11.548;2023-04-06T04:33:39;0.20;99.90
72865;DHT22;61000;48.120;11.548;2023-04-06T04:36:12;0.10;99.90
72865;DHT22;61000;48.120;11.548;2023-04-06T04:38:43;0.20;99.90
72865;DHT22;61000;48.120;11.548;2023-04-06T04:41:10;0.20;99.90
72865;DHT22;61000;48.120;11.548;2023-04-06T04:43:41;0.20;99.90
72865;DHT22;61000;48.120;11.548;2023-04-06T04:46:08;0.20;99.90
72865;DHT22;61000;48.120;11.548;2023-04-06T04:48:41;0.20;99.90
72865;DHT22;61000;48.120;11.548;2023-04-06T04:51:08;0.30;99.90
72865;DHT22;61000;48.120;11.548;2023-04-06T04:53:53;0.30;99.90
72865;DHT22;61000;48.120;11.548;2023-04-06T04:56:24;0.30;99.90
72865;DHT22;61000;48.120;11.548;2023-04-06T04:58:58;0.20;99.90
72865;DHT22;61000;48.120;11.548;2023-04-06T05:01:29;0.20;99.90
72865;DHT22;61000;48.120;11.548;2023-04-06T05:03:56;0.10;99.90
72865;DHT22;61000;48.120;11.548;2023-04-06T05:06:23;0.10;99.90
72865;DHT22;61000;48.120;11.548;2023-04-06T05:08:52;0.10;99.90
72865;DHT22;61000;48.120;11.548;2023-04-06T05:11:20;0.10;99.90
72865;DHT22;61000;48.120;11.548;2023-04-06T05:13:54;0.20;99.90
72865;DHT22;61000;48.120;11.548;2023-04-06T05:16:23;0.20;99.90
72865;DHT22;61000;48.120;11.548;2023-04-06T05:18:51;0.20;99.90
72865;DHT22;61000;48.120;11.548;2023-04-06T05:21:19;0.20;99.90
72865;DHT22;61000;48.120;11.548;2023-04-06T05:23:56;0.20;99.90
72865;DHT22;61000;48.120;11.548;2023-04-06T05:26:24;0.30;99.90
72865;DHT22;61000;48.120;11.548;2023-04-06T05:28:55;0.30;99.90
72865;DHT22;61000;48.120;11.548;2023-04-06T05:31:22;0.40;99.90
72865;DHT22;61000;48.120;11.548;2023-04-06T05:33:51;0.40;99.90
72865;DHT22;61000;48.120;11.548;2023-04-06T05:36:28;0.50;99.90
72865;DHT22;61000;48.120;11.548;2023-04-06T05:38:57;0.50;99.90
72865;DHT22;61000;48.120;11.548;2023-04-06T05:41:34;0.60;99.90
72865;DHT22;61000;48.120;11.548;2023-04-06T05:44:04;0.60;99.90
72865;DHT22;61000;48.120;11.548;2023-04-06T05:46:32;0.70;99.90
72865;DHT22;61000;48.120;11.548;2023-04-06T05:49:00;0.70;99.90
72865;DHT22;61000;48.120;11.548;2023-04-06T05:51:30;0.70;99.90
72865;DHT22;61000;48.120;11.548;2023-04-06T05:53:59;0.80;99.90
72865;DHT22;61000;48.120;11.548;2023-04-06T05:56:27;0.90;99.90
72865;DHT22;61000;48.120;11.548;2023-04-06T05:58:55;0.90;99.90
72865;DHT22;61000;48.120;11.548;2023-04-06T06:01:27;0.90;99.90
72865;DHT22;61000;48.120;11.548;2023-04-06T06:03:54;0.90;99.90
72865;DHT22;61000;48.120;11.548;2023-04-06T06:06:25;1.00;99.90
72865;DHT22;61000;48.120;11.548;2023-04-06T06:09:15;1.10;99.90
72865;DHT22;61000;48.120;11.548;2023-04-06T06:11:52;1.20;99.90
72865;DHT22;61000;48.120;11.548;2023-04-06T06:14:23;1.20;99.70
72865;DHT22;61000;48.120;11.548;2023-04-06T06:16:50;1.20;99.60
72865;DHT22;61000;48.120;11.548;2023-04-06T06:19:18;1.30;99.70
72865;DHT22;61000;48.120;11.548;2023-04-06T06:21:45;1.50;99.50
72865;DHT22;61000;48.120;11.548;2023-04-06T06:24:12;1.50;99.40
72865;DHT22;61000;48.120;11.548;2023-04-06T06:26:40;1.50;99.20
72865;DHT22;61000;48.120;11.548;2023-04-06T06:29:10;1.60;99.10
72865;DHT22;61000;48.120;11.548;2023-04-06T06:31:38;1.60;98.90
72865;DHT22;61000;48.120;11.548;2023-04-06T06:34:06;1.70;98.90
72865;DHT22;61000;48.120;11.548;2023-04-06T06:36:35;1.80;98.50
72865;DHT22;61000;48.120;11.548;2023-04-06T06:39:05;1.80;98.40
72865;DHT22;61000;48.120;11.548;2023-04-06T06:41:32;1.90;98.20
72865;DHT22;61000;48.120;11.548;2023-04-06T06:44:00;2.00;98.10
72865;DHT22;61000;48.120;11.548;2023-04-06T06:46:28;2.20;97.90
72865;DHT22;61000;48.120;11.548;2023-04-06T06:48:55;2.30;97.60
72865;DHT22;61000;48.120;11.548;2023-04-06T06:51:22;2.40;97.30
72865;DHT22;61000;48.120;11.548;2023-04-06T06:53:49;2.40;96.90
72865;DHT22;61000;48.120;11.548;2023-04-06T06:56:16;2.50;96.90
72865;DHT22;61000;48.120;11.548;2023-04-06T06:58:43;2.60;96.90
72865;DHT22;61000;48.120;11.548;2023-04-06T07:01:12;2.70;96.80
72865;DHT22;61000;48.120;11.548;2023-04-06T07:03:39;2.90;96.40
72865;DHT22;61000;48.120;11.548;2023-04-06T07:06:06;3.10;96.10
72865;DHT22;61000;48.120;11.548;2023-04-06T07:08:33;3.40;95.40
72865;DHT22;61000;48.120;11.548;2023-04-06T07:11:00;3.60;95.30
72865;DHT22;61000;48.120;11.548;2023-04-06T07:13:27;3.80;94.80
72865;DHT22;61000;48.120;11.548;2023-04-06T07:15:56;3.90;94.30
72865;DHT22;61000;48.120;11.548;2023-04-06T07:18:25;4.00;94.30
72865;DHT22;61000;48.120;11.548;2023-04-06T07:20:52;4.20;94.90
72865;DHT22;61000;48.120;11.548;2023-04-06T07:23:19;4.30;94.50
72865;DHT22;61000;48.120;11.548;2023-04-06T07:25:46;4.40;94.30
72865;DHT22;61000;48.120;11.548;2023-04-06T07:28:13;4.50;93.40
72865;DHT22;61000;48.120;11.548;2023-04-06T07:30:41;4.70;92.50
72865;DHT22;61000;48.120;11.548;2023-04-06T07:33:10;4.80;92.10
72865;DHT22;61000;48.120;11.548;2023-04-06T07:35:38;4.80;91.60
72865;DHT22;61000;48.120;11.548;2023-04-06T07:38:06;4.70;91.80
72865;DHT22;61000;48.120;11.548;2023-04-06T07:40:34;5.00;91.90
72865;DHT22;61000;48.120;11.548;2023-04-06T07:43:02;5.20;92.10
72865;DHT22;61000;48.120;11.548;2023-04-06T07:45:30;5.40;92.00
72865;DHT22;61000;48.120;11.548;2023-04-06T07:47:58;5.60;91.50
72865;DHT22;61000;48.120;11.548;2023-04-06T07:50:26;5.70;90.90
72865;DHT22;61000;48.120;11.548;2023-04-06T07:52:56;5.80;90.40
72865;DHT22;61000;48.120;11.548;2023-04-06T07:55:23;5.80;88.40
72865;DHT22;61000;48.120;11.548;2023-04-06T07:57:50;5.90;87.90
72865;DHT22;61000;48.120;11.548;2023-04-06T08:00:18;6.00;86.60
72865;DHT22;61000;48.120;11.548;2023-04-06T08:02:45;6.10;85.00
72865;DHT22;61000;48.120;11.548;2023-04-06T08:05:12;6.20;83.30
72865;DHT22;61000;48.120;11.548;2023-04-06T08:07:39;6.40;83.60
72865;DHT22;61000;48.120;11.548;2023-04-06T08:10:09;6.60;82.60
72865;DHT22;61000;48.120;11.548;2023-04-06T08:12:36;6.80;81.60
72865;DHT22;61000;48.120;11.548;2023-04-06T08:15:04;6.80;78.80
72865;DHT22;61000;48.120;11.548;2023-04-06T08:17:32;6.90;78.80
72865;DHT22;61000;48.120;11.548;2023-04-06T08:19:59;7.00;77.90
72865;DHT22;61000;48.120;11.548;2023-04-06T08:22:26;7.00;76.50
72865;DHT22;61000;48.120;11.548;2023-04-06T08:24:53;7.00;75.20
72865;DHT22;61000;48.120;11.548;2023-04-06T08:27:22;7.20;74.60
72865;DHT22;61000;48.120;11.548;2023-04-06T08:29:49;7.30;73.80
72865;DHT22;61000;48.120;11.548;2023-04-06T08:32:16;7.50;73.40
72865;DHT22;61000;48.120;11.548;2023-04-06T08:34:43;7.70;83.30
72865;DHT22;61000;48.120;11.548;2023-04-06T08:37:11;7.70;77.20
72865;DHT22;61000;48.120;11.548;2023-04-06T08:39:38;7.70;82.80
72865;DHT22;61000;48.120;11.548;2023-04-06T08:42:11;7.80;86.80
72865;DHT22;61000;48.120;11.548;2023-04-06T08:44:41;7.90;87.70
72865;DHT22;61000;48.120;11.548;2023-04-06T08:47:08;8.00;90.20
72865;DHT22;61000;48.120;11.548;2023-04-06T08:49:37;8.00;89.30
72865;DHT22;61000;48.120;11.548;2023-04-06T08:52:06;8.10;88.10
72865;DHT22;61000;48.120;11.548;2023-04-06T08:54:33;8.20;85.60
72865;DHT22;61000;48.120;11.548;2023-04-06T08:57:01;8.30;83.50
72865;DHT22;61000;48.120;11.548;2023-04-06T08:59:30;8.30;81.30
72865;DHT22;61000;48.120;11.548;2023-04-06T09:01:59;8.60;80.60
72865;DHT22;61000;48.120;11.548;2023-04-06T09:04:27;8.50;63.70
72865;DHT22;61000;48.120;11.548;2023-04-06T09:06:54;8.60;63.20
72865;DHT22;61000;48.120;11.548;2023-04-06T09:09:21;8.60;63.10
72865;DHT22;61000;48.120;11.548;2023-04-06T09:11:51;8.30;62.00
72865;DHT22;61000;48.120;11.548;2023-04-06T09:14:33;8.40;62.60
72865;DHT22;61000;48.120;11.548;2023-04-06T09:17:02;8.60;63.40
72865;DHT22;61000;48.120;11.548;2023-04-06T09:19:29;8.80;62.40
72865;DHT22;61000;48.120;11.548;2023-04-06T09:22:02;9.30;64.40
72865;DHT22;61000;48.120;11.548;2023-04-06T09:24:39;9.80;60.80
72865;DHT22;61000;48.120;11.548;2023-04-06T09:27:06;10.50;57.40
72865;DHT22;61000;48.120;11.548;2023-04-06T09:29:33;11.00;55.40
72865;DHT22;61000;48.120;11.548;2023-04-06T09:32:04;11.70;55.80
72865;DHT22;61000;48.120;11.548;2023-04-06T09:37:00;13.80;94.90
72865;DHT22;61000;48.120;11.548;2023-04-06T09:39:27;13.70;90.40
72865;DHT22;61000;48.120;11.548;2023-04-06T09:41:54;14.10;78.10
72865;DHT22;61000;48.120;11.548;2023-04-06T09:51:54;14.40;42.60
72865;DHT22;61000;48.120;11.548;2023-04-06T09:54:22;14.10;44.00
72865;DHT22;61000;48.120;11.548;2023-04-06T09:57:00;13.20;44.60
72865;DHT22;61000;48.120;11.548;2023-04-06T09:59:35;13.10;58.70
72865;DHT22;61000;48.120;11.548;2023-04-06T10:02:05;12.40;68.90
72865;DHT22;61000;48.120;11.548;2023-04-06T10:04:41;11.60;83.50
72865;DHT22;61000;48.120;11.548;2023-04-06T10:07:10;11.00;73.30
72865;DHT22;61000;48.120;11.548;2023-04-06T10:14:34;10.30;94.70
72865;DHT22;61000;48.120;11.548;2023-04-06T10:17:02;10.90;70.70
72865;DHT22;61000;48.120;11.548;2023-04-06T10:19:39;11.60;72.30
72865;DHT22;61000;48.120;11.548;2023-04-06T10:22:08;12.50;73.10
72865;DHT22;61000;48.120;11.548;2023-04-06T10:24:37;12.70;59.00
72865;DHT22;61000;48.120;11.548;2023-04-06T10:27:06;12.60;45.40
72865;DHT22;61000;48.120;11.548;2023-04-06T10:32:10;12.90;43.70
72865;DHT22;61000;48.120;11.548;2023-04-06T10:34:39;12.90;44.70
72865;DHT22;61000;48.120;11.548;2023-04-06T10:37:16;12.70;44.90
72865;DHT22;61000;48.120;11.548;2023-04-06T10:39:47;12.20;45.70
72865;DHT22;61000;48.120;11.548;2023-04-06T10:42:14;11.70;45.80
72865;DHT22;61000;48.120;11.548;2023-04-06T10:44:44;11.20;46.90
72865;DHT22;61000;48.120;11.548;2023-04-06T10:47:18;11.40;47.40
72865;DHT22;61000;48.120;11.548;2023-04-06T10:49:46;11.40;48.10
72865;DHT22;61000;48.120;11.548;2023-04-06T10:52:13;11.40;47.30
72865;DHT22;61000;48.120;11.548;2023-04-06T10:54:42;11.60;47.50
72865;DHT22;61000;48.120;11.548;2023-04-06T10:57:10;11.70;47.20
72865;DHT22;61000;48.120;11.548;2023-04-06T10:59:41;11.80;46.00
72865;DHT22;61000;48.120;11.548;2023-04-06T11:02:08;11.60;46.50
72865;DHT22;61000;48.120;11.548;2023-04-06T11:04:35;11.30;47.00
72865;DHT22;61000;48.120;11.548;2023-04-06T11:07:03;11.40;47.10
72865;DHT22;61000;48.120;11.548;2023-04-06T11:09:30;11.50;47.10
72865;DHT22;61000;48.120;11.548;2023-04-06T11:11:58;11.40;47.10
72865;DHT22;61000;48.120;11.548;2023-04-06T11:14:26;11.20;47.40
72865;DHT22;61000;48.120;11.548;2023-04-06T11:16:53;11.10;47.20
72865;DHT22;61000;48.120;11.548;2023-04-06T11:19:20;11.10;48.40
72865;DHT22;61000;48.120;11.548;2023-04-06T11:21:48;11.30;48.20
72865;DHT22;61000;48.120;11.548;2023-04-06T11:24:18;11.20;47.10
72865;DHT22;61000;48.120;11.548;2023-04-06T11:26:46;11.20;47.80
72865;DHT22;61000;48.120;11.548;2023-04-06T11:29:15;11.20;48.00
72865;DHT22;61000;48.120;11.548;2023-04-06T11:31:45;11.30;47.90
72865;DHT22;61000;48.120;11.548;2023-04-06T11:34:15;11.50;47.60
72865;DHT22;61000;48.120;11.548;2023-04-06T11:36:44;11.40;47.20
72865;DHT22;61000;48.120;11.548;2023-04-06T11:39:12;11.60;48.00
72865;DHT22;61000;48.120;11.548;2023-04-06T11:41:40;11.70;46.80
72865;DHT22;61000;48.120;11.548;2023-04-06T11:44:07;11.80;46.90
72865;DHT22;61000;48.120;11.548;2023-04-06T11:46:34;11.90;46.40
72865;DHT22;61000;48.120;11.548;2023-04-06T11:49:02;11.80;46.30
72865;DHT22;61000;48.120;11.548;2023-04-06T11:51:29;11.70;47.30
72865;DHT22;61000;48.120;11.548;2023-04-06T11:53:56;11.80;47.20
72865;DHT22;61000;48.120;11.548;2023-04-06T11:56:24;11.80;46.30
72865;DHT22;61000;48.120;11.548;2023-04-06T11:58:54;11.60;46.20
72865;DHT22;61000;48.120;11.548;2023-04-06T12:01:21;11.50;46.90
72865;DHT22;61000;48.120;11.548;2023-04-06T12:03:48;11.30;46.80
72865;DHT22;61000;48.120;11.548;2023-04-06T12:06:16;11.50;46.90
72865;DHT22;61000;48.120;11.548;2023-04-06T12:08:44;11.50;47.20
72865;DHT22;61000;48.120;11.548;2023-04-06T12:11:11;11.40;47.70
72865;DHT22;61000;48.120;11.548;2023-04-06T12:13:38;11.50;48.30
72865;DHT22;61000;48.120;11.548;2023-04-06T12:16:07;11.70;47.40
72865;DHT22;61000;48.120;11.548;2023-04-06T12:18:34;11.80;46.70
72865;DHT22;61000;48.120;11.548;2023-04-06T12:21:01;11.70;46.30
72865;DHT22;61000;48.120;11.548;2023-04-06T12:23:28;12.00;46.20
72865;DHT22;61000;48.120;11.548;2023-04-06T12:25:55;11.90;45.20
72865;DHT22;61000;48.120;11.548;2023-04-06T12:28:22;12.00;44.60
72865;DHT22;61000;48.120;11.548;2023-04-06T12:30:52;11.90;45.00
72865;DHT22;61000;48.120;11.548;2023-04-06T12:33:21;12.10;45.30
72865;DHT22;61000;48.120;11.548;2023-04-06T12:35:48;12.20;45.40
72865;DHT22;61000;48.120;11.548;2023-04-06T12:38:15;12.00;45.30
72865;DHT22;61000;48.120;11.548;2023-04-06T12:40:43;12.20;45.30
72865;DHT22;61000;48.120;11.548;2023-04-06T12:43:10;12.60;46.00
72865;DHT22;61000;48.120;11.548;2023-04-06T12:45:38;12.70;45.20
72865;DHT22;61000;48.120;11.548;2023-04-06T12:48:06;12.80;45.00
72865;DHT22;61000;48.120;11.548;2023-04-06T12:50:34;12.70;43.80
72865;DHT22;61000;48.120;11.548;2023-04-06T12:53:01;12.70;44.10
72865;DHT22;61000;48.120;11.548;2023-04-06T12:55:30;12.70;43.20
72865;DHT22;61000;48.120;11.548;2023-04-06T12:57:59;12.60;43.80
72865;DHT22;61000;48.120;11.548;2023-04-06T13:00:27;12.20;43.50
72865;DHT22;61000;48.120;11.548;2023-04-06T13:02:54;12.20;43.70
72865;DHT22;61000;48.120;11.548;2023-04-06T13:05:21;12.10;44.00
72865;DHT22;61000;48.120;11.548;2023-04-06T13:07:49;11.90;44.60
72865;DHT22;61000;48.120;11.548;2023-04-06T13:10:16;11.80;45.20
72865;DHT22;61000;48.120;11.548;2023-04-06T13:12:43;11.70;45.30
72865;DHT22;61000;48.120;11.548;2023-04-06T13:15:10;11.40;45.80
72865;DHT22;61000;48.120;11.548;2023-04-06T13:17:37;11.30;45.80
72865;DHT22;61000;48.120;11.548;2023-04-06T13:20:06;11.20;46.40
72865;DHT22;61000;48.120;11.548;2023-04-06T13:22:33;11.40;46.60
72865;DHT22;61000;48.120;11.548;2023-04-06T13:25:01;11.50;46.20
72865;DHT22;61000;48.120;11.548;2023-04-06T13:27:28;11.70;45.60
72865;DHT22;61000;48.120;11.548;2023-04-06T13:29:59;11.50;45.50
72865;DHT22;61000;48.120;11.548;2023-04-06T13:32:26;11.70;45.40
72865;DHT22;61000;48.120;11.548;2023-04-06T13:34:54;12.20;45.10
72865;DHT22;61000;48.120;11.548;2023-04-06T13:37:21;12.70;44.60
72865;DHT22;61000;48.120;11.548;2023-04-06T13:39:48;12.70;43.50
72865;DHT22;61000;48.120;11.548;2023-04-06T13:42:17;12.50;44.20
72865;DHT22;61000;48.120;11.548;2023-04-06T13:44:44;12.70;45.10
72865;DHT22;61000;48.120;11.548;2023-04-06T13:47:12;12.40;44.30
72865;DHT22;61000;48.120;11.548;2023-04-06T13:49:40;12.40;45.10
72865;DHT22;61000;48.120;11.548;2023-04-06T13:52:07;12.50;44.30
72865;DHT22;61000;48.120;11.548;2023-04-06T13:54:35;12.70;44.00
72865;DHT22;61000;48.120;11.548;2023-04-06T13:57:02;12.90;44.10
72865;DHT22;61000;48.120;11.548;2023-04-06T13:59:33;13.30;44.10
72865;DHT22;61000;48.120;11.548;2023-04-06T14:02:01;13.20;42.30
72865;DHT22;61000;48.120;11.548;2023-04-06T14:04:28;12.80;42.30
72865;DHT22;61000;48.120;11.548;2023-04-06T14:06:55;12.40;43.20
72865;DHT22;61000;48.120;11.548;2023-04-06T14:09:22;12.00;44.00
72865;DHT22;61000;48.120;11.548;2023-04-06T14:11:49;12.00;44.60
72865;DHT22;61000;48.120;11.548;2023-04-06T14:14:16;12.30;44.70
72865;DHT22;61000;48.120;11.548;2023-04-06T14:16:45;12.20;44.40
72865;DHT22;61000;48.120;11.548;2023-04-06T14:19:12;12.20;44.00
72865;DHT22;61000;48.120;11.548;2023-04-06T14:21:41;12.40;44.20
72865;DHT22;61000;48.120;11.548;2023-04-06T14:24:09;12.90;45.70
72865;DHT22;61000;48.120;11.548;2023-04-06T14:26:37;13.10;53.40
72865;DHT22;61000;48.120;11.548;2023-04-06T14:29:04;13.00;54.10
72865;DHT22;61000;48.120;11.548;2023-04-06T14:31:31;12.90;54.10
72865;DHT22;61000;48.120;11.548;2023-04-06T14:34:01;12.80;54.30
72865;DHT22;61000;48.120;11.548;2023-04-06T14:36:28;12.20;54.40
72865;DHT22;61000;48.120;11.548;2023-04-06T14:39:02;12.30;53.50
72865;DHT22;61000;48.120;11.548;2023-04-06T14:41:30;12.30;53.50
72865;DHT22;61000;48.120;11.548;2023-04-06T14:43:57;12.00;54.70
72865;DHT22;61000;48.120;11.548;2023-04-06T14:46:24;11.70;56.30
72865;DHT22;61000;48.120;11.548;2023-04-06T14:48:53;11.60;56.00
72865;DHT22;61000;48.120;11.548;2023-04-06T14:51:22;11.30;60.10
72865;DHT22;61000;48.120;11.548;2023-04-06T14:53:50;11.30;61.40
72865;DHT22;61000;48.120;11.548;2023-04-06T14:56:20;11.40;62.70
72865;DHT22;61000;48.120;11.548;2023-04-06T14:58:48;11.20;65.60
72865;DHT22;61000;48.120;11.548;2023-04-06T15:01:15;11.20;67.80
72865;DHT22;61000;48.120;11.548;2023-04-06T15:03:42;11.40;67.70
72865;DHT22;61000;48.120;11.548;2023-04-06T15:06:12;11.60;66.70
72865;DHT22;61000;48.120;11.548;2023-04-06T15:08:42;11.80;65.80
72865;DHT22;61000;48.120;11.548;2023-04-06T15:11:10;11.80;64.20
72865;DHT22;61000;48.120;11.548;2023-04-06T15:13:37;11.70;63.30
72865;DHT22;61000;48.120;11.548;2023-04-06T15:16:04;11.60;63.20
72865;DHT22;61000;48.120;11.548;2023-04-06T15:18:32;11.60;62.50
72865;DHT22;61000;48.120;11.548;2023-04-06T15:20:59;11.90;62.50
72865;DHT22;61000;48.120;11.548;2023-04-06T15:23:26;11.90;61.80
72865;DHT22;61000;48.120;11.548;2023-04-06T15:25:56;12.10;60.00
72865;DHT22;61000;48.120;11.548;2023-04-06T15:28:23;11.60;59.30
72865;DHT22;61000;48.120;11.548;2023-04-06T15:30:50;11.40;59.70
72865;DHT22;61000;48.120;11.548;2023-04-06T15:33:17;11.40;60.50
72865;DHT22;61000;48.120;11.548;2023-04-06T15:35:46;11.40;61.10
72865;DHT22;61000;48.120;11.548;2023-04-06T15:38:13;11.30;62.20
72865;DHT22;61000;48.120;11.548;2023-04-06T15:40:43;11.40;62.30
72865;DHT22;61000;48.120;11.548;2023-04-06T15:43:12;11.50;62.50
72865;DHT22;61000;48.120;11.548;2023-04-06T15:45:40;11.60;62.10
72865;DHT22;61000;48.120;11.548;2023-04-06T15:48:07;11.80;61.10
72865;DHT22;61000;48.120;11.548;2023-04-06T15:50:34;11.90;59.60
72865;DHT22;61000;48.120;11.548;2023-04-06T15:53:01;11.90;59.30